createdAt,value
2023-03-15T00:01:54.096Z,13.97
2023-03-15T00:04:20.654Z,13.95
2023-03-15T00:06:47.281Z,14.12
2023-03-15T00:09:13.841Z,13.90
2023-03-15T00:11:40.604Z,13.81
2023-03-15T00:14:07.185Z,14.23
2023-03-15T00:16:33.738Z,14.12
2023-03-15T00:19:00.318Z,14.14
2023-03-15T00:21:26.924Z,14.57
2023-03-15T00:23:53.535Z,14.93
2023-03-15T00:26:20.121Z,14.91
2023-03-15T00:28:46.688Z,14.48
2023-03-15T00:31:13.318Z,14.62
2023-03-15T00:33:39.955Z,14.72
2023-03-15T00:36:06.667Z,14.47
2023-03-15T00:38:33.361Z,14.66
2023-03-15T00:40:59.949Z,14.59
2023-03-15T00:43:27.133Z,14.61
2023-03-15T00:45:53.741Z,14.73
2023-03-15T00:48:20.376Z,14.45
2023-03-15T00:50:46.969Z,14.37
2023-03-15T00:53:13.638Z,14.36
2023-03-15T00:55:40.638Z,14.48
2023-03-15T00:58:07.224Z,14.32
2023-03-15T01:00:33.906Z,14.61
2023-03-15T01:03:00.539Z,14.77
2023-03-15T01:05:27.169Z,14.48
2023-03-15T01:07:53.938Z,14.32
2023-03-15T01:10:20.514Z,14.68
2023-03-15T01:12:47.121Z,14.77
2023-03-15T01:15:13.693Z,14.66
2023-03-15T01:17:40.467Z,14.70
2023-03-15T01:20:07.096Z,14.52
2023-03-15T01:22:33.727Z,13.96
2023-03-15T01:25:00.320Z,14.49
2023-03-15T01:27:26.899Z,14.23
2023-03-15T01:29:53.490Z,14.41
2023-03-15T01:32:20.115Z,14.18
2023-03-15T01:34:46.910Z,14.41
2023-03-15T01:37:13.498Z,14.67
2023-03-15T01:39:40.101Z,14.69
2023-03-15T01:42:06.688Z,14.62
2023-03-15T01:44:33.252Z,14.59
2023-03-15T01:46:59.912Z,14.70
2023-03-15T01:49:26.546Z,14.54
2023-03-15T01:51:53.150Z,14.49
2023-03-15T01:54:19.751Z,14.63
2023-03-15T01:56:46.369Z,14.67
2023-03-15T01:59:12.978Z,14.63
2023-03-15T02:01:39.659Z,14.68
2023-03-15T02:04:06.280Z,14.33
2023-03-15T02:06:33.004Z,13.96
2023-03-15T02:08:59.594Z,14.00
2023-03-15T02:11:26.302Z,13.95
2023-03-15T02:13:52.960Z,14.20
2023-03-15T02:16:19.688Z,14.09
2023-03-15T02:18:46.280Z,14.11
2023-03-15T02:21:12.866Z,14.30
2023-03-15T02:23:39.446Z,14.25
2023-03-15T02:26:06.091Z,14.27
2023-03-15T02:28:32.695Z,14.26
2023-03-15T02:30:59.293Z,14.08
2023-03-15T02:33:25.891Z,13.84
2023-03-15T02:35:52.566Z,13.76
2023-03-15T02:38:19.196Z,13.58
2023-03-15T02:40:45.759Z,13.61
2023-03-15T02:43:12.377Z,13.95
2023-03-15T02:45:38.994Z,14.04
2023-03-15T02:48:05.605Z,14.33
2023-03-15T02:50:32.164Z,14.12
2023-03-15T02:52:59.008Z,13.99
2023-03-15T02:55:25.699Z,14.16
2023-03-15T02:57:52.295Z,14.07
2023-03-15T03:00:18.917Z,14.30
2023-03-15T03:02:45.568Z,14.01
2023-03-15T03:05:12.184Z,14.18
2023-03-15T03:07:38.828Z,14.04
2023-03-15T03:10:05.457Z,13.97
2023-03-15T03:12:32.060Z,14.37
2023-03-15T03:14:58.608Z,14.13
2023-03-15T03:17:25.202Z,13.92
2023-03-15T03:19:51.872Z,13.83
2023-03-15T03:22:20.571Z,13.57
2023-03-15T03:24:47.136Z,13.82
2023-03-15T03:27:13.731Z,13.74
2023-03-15T03:29:41.358Z,13.63
2023-03-15T03:32:07.959Z,13.81
2023-03-15T03:34:34.575Z,13.74
2023-03-15T03:37:01.158Z,14.04
2023-03-15T03:39:27.758Z,14.24
2023-03-15T03:41:54.330Z,14.09
2023-03-15T03:44:20.980Z,14.25
2023-03-15T03:46:47.558Z,14.35
2023-03-15T03:49:14.171Z,14.48
2023-03-15T03:51:41.055Z,14.53
2023-03-15T03:54:07.626Z,14.55
2023-03-15T03:56:34.223Z,14.54
2023-03-15T03:59:00.831Z,14.45
2023-03-15T04:01:27.425Z,14.18
2023-03-15T04:03:54.069Z,14.36
2023-03-15T04:06:20.666Z,13.65
2023-03-15T04:08:47.281Z,13.98
2023-03-15T04:11:13.897Z,14.11
2023-03-15T04:13:42.687Z,14.16
2023-03-15T04:16:09.341Z,14.07
2023-03-15T04:18:35.919Z,14.09
2023-03-15T04:21:02.493Z,13.99
2023-03-15T04:23:29.085Z,14.16
2023-03-15T04:25:55.724Z,13.91
2023-03-15T04:28:22.306Z,13.61
2023-03-15T04:30:48.914Z,13.73
2023-03-15T04:33:15.529Z,13.96
2023-03-15T04:35:42.139Z,14.25
2023-03-15T04:38:08.796Z,14.10
2023-03-15T04:40:35.415Z,14.15
2023-03-15T04:43:02.005Z,14.03
2023-03-15T04:45:28.592Z,14.23
2023-03-15T04:47:55.217Z,13.90
2023-03-15T04:50:21.823Z,13.70
2023-03-15T04:52:48.411Z,14.05
2023-03-15T04:55:14.987Z,14.16
2023-03-15T04:57:41.596Z,14.06
2023-03-15T05:00:08.268Z,14.20
2023-03-15T05:02:34.864Z,14.07
2023-03-15T05:05:01.561Z,13.91
2023-03-15T05:07:28.163Z,14.22
2023-03-15T05:09:54.777Z,14.24
2023-03-15T05:12:21.374Z,14.19
2023-03-15T05:14:48.072Z,13.77
2023-03-15T05:17:14.668Z,13.95
2023-03-15T05:19:41.275Z,13.75
2023-03-15T05:22:07.898Z,13.50
2023-03-15T05:24:34.559Z,13.73
2023-03-15T05:27:01.173Z,13.20
2023-03-15T05:29:27.971Z,13.11
2023-03-15T05:31:54.585Z,13.27
2023-03-15T05:34:21.245Z,13.68
2023-03-15T05:36:47.796Z,13.92
2023-03-15T05:39:14.389Z,13.67
2023-03-15T05:41:40.959Z,13.67
2023-03-15T05:44:07.569Z,13.61
2023-03-15T05:46:34.216Z,13.31
2023-03-15T05:49:00.814Z,13.12
2023-03-15T05:51:27.403Z,13.00
2023-03-15T05:53:54.029Z,13.02
2023-03-15T05:56:20.591Z,13.30
2023-03-15T05:58:47.295Z,13.27
2023-03-15T06:01:13.902Z,13.33
2023-03-15T06:03:40.844Z,13.25
2023-03-15T06:06:07.561Z,12.73
2023-03-15T06:08:34.187Z,12.63
2023-03-15T06:11:00.890Z,13.10
2023-03-15T06:13:27.507Z,13.29
2023-03-15T06:15:54.134Z,13.18
2023-03-15T06:18:20.734Z,13.03
2023-03-15T06:20:47.309Z,13.15
2023-03-15T06:23:13.941Z,13.16
2023-03-15T06:25:40.563Z,12.70
2023-03-15T06:28:07.234Z,12.74
2023-03-15T06:30:33.818Z,13.25
2023-03-15T06:33:00.492Z,13.63
2023-03-15T06:35:27.112Z,13.86
2023-03-15T06:37:53.775Z,13.80
2023-03-15T06:40:20.390Z,13.46
2023-03-15T06:42:46.988Z,13.34
2023-03-15T06:45:13.599Z,13.54
2023-03-15T06:47:40.201Z,13.80
2023-03-15T06:50:06.818Z,14.04
2023-03-15T06:52:33.415Z,14.11
2023-03-15T06:55:00.050Z,14.16
2023-03-15T06:57:26.678Z,13.85
2023-03-15T06:59:53.277Z,13.88
2023-03-15T07:02:20.151Z,14.22
2023-03-15T07:04:46.807Z,14.13
2023-03-15T07:07:13.394Z,13.89
2023-03-15T07:09:39.994Z,13.77
2023-03-15T07:12:06.660Z,13.62
2023-03-15T07:14:33.394Z,13.16
2023-03-15T07:17:00.349Z,13.08
2023-03-15T07:19:28.128Z,13.25
2023-03-15T07:21:54.905Z,13.27
2023-03-15T07:24:21.752Z,13.66
2023-03-15T07:26:48.370Z,14.04
2023-03-15T07:29:14.987Z,14.00
2023-03-15T07:31:41.606Z,13.80
2023-03-15T07:34:08.183Z,13.86
2023-03-15T07:36:34.844Z,14.24
2023-03-15T07:39:01.402Z,14.45
2023-03-15T07:41:28.014Z,14.57
2023-03-15T07:43:55.690Z,14.65
2023-03-15T07:46:23.034Z,14.50
2023-03-15T07:48:49.666Z,14.40
2023-03-15T07:51:16.239Z,14.71
2023-03-15T07:53:42.868Z,14.62
2023-03-15T07:56:09.544Z,14.82
2023-03-15T07:58:36.240Z,14.83
2023-03-15T08:01:02.858Z,15.06
2023-03-15T08:03:29.515Z,15.11
2023-03-15T08:05:58.905Z,15.09
2023-03-15T08:08:25.509Z,14.87
2023-03-15T08:10:52.129Z,15.25
2023-03-15T08:13:18.733Z,15.25
2023-03-15T08:15:45.327Z,15.26
2023-03-15T08:18:11.908Z,15.55
2023-03-15T08:20:38.558Z,15.83
2023-03-15T08:23:05.388Z,15.96
2023-03-15T08:25:31.979Z,16.07
2023-03-15T08:27:58.613Z,16.23
2023-03-15T08:30:25.175Z,15.67
2023-03-15T08:32:51.883Z,15.33
2023-03-15T08:35:18.522Z,15.21
2023-03-15T08:37:45.120Z,15.37
2023-03-15T08:40:11.706Z,15.00
2023-03-15T08:42:38.328Z,14.99
2023-03-15T08:45:05.117Z,15.34
2023-03-15T08:47:31.674Z,15.31
2023-03-15T08:49:58.311Z,15.99
2023-03-15T08:52:24.890Z,16.20
2023-03-15T08:54:51.521Z,15.56
2023-03-15T08:57:18.096Z,15.08
2023-03-15T08:59:44.669Z,14.48
2023-03-15T09:02:11.388Z,14.67
2023-03-15T09:04:38.094Z,14.86
2023-03-15T09:07:04.853Z,14.54
2023-03-15T09:09:31.446Z,14.77
2023-03-15T09:11:58.043Z,14.62
2023-03-15T09:14:24.607Z,14.58
2023-03-15T09:16:51.433Z,14.16
2023-03-15T09:19:18.044Z,14.81
2023-03-15T09:21:44.988Z,15.10
2023-03-15T09:24:11.601Z,15.04
2023-03-15T09:26:38.200Z,14.77
2023-03-15T09:29:04.766Z,14.94
2023-03-15T09:31:31.355Z,15.52
2023-03-15T09:33:57.959Z,15.55
2023-03-15T09:36:24.554Z,16.05
2023-03-15T09:38:51.237Z,15.93
2023-03-15T09:41:17.841Z,15.53
2023-03-15T09:43:44.426Z,15.83
2023-03-15T09:46:11.133Z,15.72
2023-03-15T09:48:37.806Z,15.29
2023-03-15T09:51:04.483Z,15.04
2023-03-15T09:53:31.059Z,14.99
2023-03-15T09:55:57.628Z,15.43
2023-03-15T09:58:24.194Z,15.79
2023-03-15T10:00:50.791Z,15.82
2023-03-15T10:03:17.405Z,15.59
2023-03-15T10:05:44.162Z,14.82
2023-03-15T10:08:10.725Z,14.67
2023-03-15T10:10:37.323Z,13.74
2023-03-15T10:13:03.940Z,12.79
2023-03-15T10:15:30.533Z,12.58
2023-03-15T10:17:57.130Z,12.77
2023-03-15T10:20:23.735Z,13.12
2023-03-15T10:22:50.504Z,13.04
2023-03-15T10:25:17.117Z,13.00
2023-03-15T10:27:43.882Z,13.06
2023-03-15T10:30:10.505Z,12.85
2023-03-15T10:32:37.186Z,13.19
2023-03-15T10:35:03.818Z,13.16
2023-03-15T10:37:30.399Z,12.86
2023-03-15T10:39:57.018Z,13.20
2023-03-15T10:42:23.582Z,13.68
2023-03-15T10:44:50.169Z,13.58
2023-03-15T10:47:23.663Z,13.91
2023-03-15T10:49:51.056Z,14.65
2023-03-15T10:52:17.721Z,15.23
2023-03-15T10:54:45.006Z,14.73
2023-03-15T10:57:11.672Z,14.21
2023-03-15T10:59:38.234Z,14.14
2023-03-15T11:02:04.853Z,14.14
2023-03-15T11:04:34.165Z,14.39
2023-03-15T11:07:00.950Z,14.17
2023-03-15T11:09:27.565Z,14.00
2023-03-15T11:11:54.127Z,14.22
2023-03-15T11:14:20.744Z,13.46
2023-03-15T11:16:47.319Z,13.47
2023-03-15T11:19:13.939Z,13.76
2023-03-15T11:21:40.510Z,13.85
2023-03-15T11:24:07.070Z,13.62
2023-03-15T11:26:33.792Z,13.90
2023-03-15T11:29:00.342Z,13.98
2023-03-15T11:31:26.951Z,13.58
2023-03-15T11:33:53.526Z,13.69
2023-03-15T11:36:20.214Z,14.45
2023-03-15T11:38:46.774Z,14.56
2023-03-15T11:41:13.429Z,14.49
2023-03-15T11:43:40.010Z,14.73
2023-03-15T11:46:06.694Z,15.48
2023-03-15T11:48:33.285Z,14.61
2023-03-15T11:50:59.893Z,14.65
2023-03-15T11:53:26.528Z,14.03
2023-03-15T11:55:53.153Z,14.18
2023-03-15T11:58:19.731Z,14.67
2023-03-15T12:00:46.338Z,14.86
2023-03-15T12:03:12.964Z,14.67
2023-03-15T12:05:39.538Z,14.12
2023-03-15T12:08:06.123Z,14.10
2023-03-15T12:10:32.687Z,14.14
2023-03-15T12:12:59.282Z,14.46
2023-03-15T12:15:28.067Z,14.32
2023-03-15T12:17:54.754Z,14.96
2023-03-15T12:20:21.363Z,14.98
2023-03-15T12:22:48.902Z,14.74
2023-03-15T12:25:15.494Z,14.04
2023-03-15T12:27:42.097Z,14.23
2023-03-15T12:30:08.723Z,14.59
2023-03-15T12:32:35.378Z,14.51
2023-03-15T12:35:02.044Z,14.39
2023-03-15T12:37:28.635Z,14.18
2023-03-15T12:39:55.234Z,14.39
2023-03-15T12:42:21.820Z,13.72
2023-03-15T12:44:48.404Z,13.64
2023-03-15T12:47:14.992Z,14.49
2023-03-15T12:49:41.647Z,14.61
2023-03-15T12:52:08.278Z,14.13
2023-03-15T12:54:34.914Z,14.20
2023-03-15T12:57:01.499Z,13.89
2023-03-15T12:59:28.065Z,14.19
2023-03-15T13:01:54.809Z,14.62
2023-03-15T13:04:21.697Z,14.75
2023-03-15T13:06:48.504Z,14.97
2023-03-15T13:09:15.104Z,15.02
2023-03-15T13:11:41.736Z,15.43
2023-03-15T13:14:08.349Z,16.02
2023-03-15T13:16:34.955Z,15.68
2023-03-15T13:19:01.524Z,15.42
2023-03-15T13:21:28.118Z,15.13
2023-03-15T13:23:54.708Z,15.80
2023-03-15T13:26:21.300Z,15.61
2023-03-15T13:28:47.923Z,15.87
2023-03-15T13:31:14.596Z,15.92
2023-03-15T13:33:41.268Z,14.98
2023-03-15T13:36:07.826Z,15.35
2023-03-15T13:38:34.429Z,15.29
2023-03-15T13:41:01.047Z,15.06
2023-03-15T13:43:27.660Z,14.37
2023-03-15T13:45:54.227Z,14.74
2023-03-15T13:48:20.840Z,15.16
2023-03-15T13:50:47.462Z,15.51
2023-03-15T13:53:14.061Z,14.60
2023-03-15T13:55:40.645Z,14.48
2023-03-15T13:58:07.295Z,14.27
2023-03-15T14:00:33.867Z,13.90
2023-03-15T14:03:00.511Z,14.68
2023-03-15T14:05:27.370Z,14.44
2023-03-15T14:07:54.063Z,14.78
2023-03-15T14:10:20.639Z,15.42
2023-03-15T14:12:47.256Z,16.03
2023-03-15T14:15:13.843Z,15.82
2023-03-15T14:17:40.470Z,15.44
2023-03-15T14:20:07.030Z,15.64
2023-03-15T14:22:33.625Z,15.25
2023-03-15T14:25:00.204Z,14.70
2023-03-15T14:27:26.759Z,14.83
2023-03-15T14:29:53.397Z,14.57
2023-03-15T14:32:19.955Z,14.50
2023-03-15T14:34:46.569Z,14.24
2023-03-15T14:37:13.133Z,13.46
2023-03-15T14:39:39.747Z,13.38
2023-03-15T14:42:06.313Z,13.52
2023-03-15T14:44:33.053Z,13.87
2023-03-15T14:46:59.703Z,13.50
2023-03-15T14:49:26.282Z,13.31
2023-03-15T14:51:52.869Z,13.47
2023-03-15T14:54:19.589Z,13.29
2023-03-15T14:56:46.580Z,13.66
2023-03-15T14:59:13.185Z,14.43
2023-03-15T15:01:39.753Z,14.79
2023-03-15T15:04:06.348Z,14.60
2023-03-15T15:06:32.911Z,14.41
2023-03-15T15:08:59.485Z,13.98
2023-03-15T15:11:26.140Z,14.38
2023-03-15T15:13:52.750Z,14.43
2023-03-15T15:16:19.400Z,14.01
2023-03-15T15:18:46.045Z,13.67
2023-03-15T15:21:12.636Z,14.02
2023-03-15T15:23:54.966Z,13.62
2023-03-15T15:26:23.833Z,14.27
2023-03-15T15:28:50.396Z,14.55
2023-03-15T15:31:17.095Z,14.23
2023-03-15T15:33:43.750Z,13.79
2023-03-15T15:36:10.426Z,14.16
2023-03-15T15:38:37.141Z,14.27
2023-03-15T15:41:03.862Z,13.66
2023-03-15T15:43:33.049Z,13.51
2023-03-15T15:46:00.203Z,13.48
2023-03-15T15:48:26.826Z,13.74
2023-03-15T15:50:53.411Z,13.69
2023-03-15T15:53:19.986Z,14.15
2023-03-15T15:55:46.593Z,13.35
2023-03-15T15:58:13.173Z,12.99
2023-03-15T16:00:39.836Z,12.90
2023-03-15T16:03:06.659Z,13.02
2023-03-15T16:05:33.329Z,12.64
2023-03-15T16:07:59.903Z,13.20
2023-03-15T16:10:26.523Z,12.88
2023-03-15T16:12:53.093Z,13.14
2023-03-15T16:15:19.711Z,12.96
2023-03-15T16:17:46.325Z,12.45
2023-03-15T16:20:15.271Z,12.66
2023-03-15T16:22:41.911Z,12.70
2023-03-15T16:25:08.473Z,13.30
2023-03-15T16:27:35.058Z,12.80
2023-03-15T16:30:01.759Z,12.65
2023-03-15T16:32:43.058Z,12.80
2023-03-15T16:35:10.881Z,12.49
2023-03-15T16:37:37.750Z,12.04
2023-03-15T16:40:04.400Z,12.06
2023-03-15T16:42:30.956Z,11.59
2023-03-15T16:44:57.515Z,11.82
2023-03-15T16:47:24.104Z,11.99
2023-03-15T16:49:50.670Z,12.25
2023-03-15T16:52:17.241Z,11.99
2023-03-15T16:54:43.875Z,12.04
2023-03-15T16:57:10.467Z,11.71
2023-03-15T16:59:37.131Z,11.19
2023-03-15T17:02:03.738Z,10.79
2023-03-15T17:04:30.405Z,10.72
2023-03-15T17:06:57.027Z,10.99
2023-03-15T17:09:23.618Z,11.17
2023-03-15T17:11:50.262Z,10.58
2023-03-15T17:14:16.865Z,10.75
2023-03-15T17:16:43.634Z,10.88
2023-03-15T17:19:13.068Z,11.21
2023-03-15T17:21:39.687Z,11.16
2023-03-15T17:24:06.297Z,11.23
2023-03-15T17:26:34.036Z,11.44
2023-03-15T17:29:00.607Z,11.53
2023-03-15T17:31:27.325Z,11.54
2023-03-15T17:33:53.932Z,11.50
2023-03-15T17:36:20.551Z,11.23
2023-03-15T17:38:47.144Z,10.97
2023-03-15T17:41:13.770Z,10.84
2023-03-15T17:43:40.427Z,10.64
2023-03-15T17:46:07.022Z,10.66
2023-03-15T17:48:33.607Z,10.97
2023-03-15T17:51:00.199Z,10.87
2023-03-15T17:53:26.763Z,10.89
2023-03-15T17:55:53.357Z,10.78
2023-03-15T17:58:19.980Z,10.68
2023-03-15T18:00:46.608Z,10.76
2023-03-15T18:03:13.177Z,10.85
2023-03-15T18:05:39.771Z,10.94
2023-03-15T18:08:06.379Z,11.01
2023-03-15T18:10:32.976Z,10.85
2023-03-15T18:12:59.538Z,10.91
2023-03-15T18:15:26.124Z,10.62
2023-03-15T18:17:52.680Z,10.41
2023-03-15T18:20:19.313Z,10.40
2023-03-15T18:22:45.918Z,10.64
2023-03-15T18:25:12.567Z,10.51
2023-03-15T18:27:39.145Z,10.39
2023-03-15T18:30:05.740Z,10.41
2023-03-15T18:32:32.373Z,10.22
2023-03-15T18:34:59.196Z,9.98
2023-03-15T18:37:25.751Z,10.22
2023-03-15T18:39:52.339Z,10.08
2023-03-15T18:42:18.897Z,9.92
2023-03-15T18:44:45.483Z,9.59
2023-03-15T18:47:12.117Z,10.03
2023-03-15T18:49:38.723Z,10.38
2023-03-15T18:52:05.300Z,10.52
2023-03-15T18:54:31.896Z,10.50
2023-03-15T18:56:58.466Z,10.11
2023-03-15T18:59:25.959Z,10.05
2023-03-15T19:01:52.592Z,10.23
2023-03-15T19:04:19.181Z,9.79
2023-03-15T19:06:45.910Z,9.77
2023-03-15T19:09:12.500Z,9.70
2023-03-15T19:11:39.142Z,9.66
2023-03-15T19:14:05.772Z,9.64
2023-03-15T19:16:32.482Z,9.47
2023-03-15T19:18:59.079Z,9.55
2023-03-15T19:21:25.683Z,9.73
2023-03-15T19:23:52.295Z,9.56
2023-03-15T19:26:18.975Z,9.61
2023-03-15T19:28:45.971Z,9.79
2023-03-15T19:31:12.647Z,9.53
2023-03-15T19:33:39.272Z,9.46
2023-03-15T19:36:05.991Z,9.42
2023-03-15T19:38:32.676Z,9.41
2023-03-15T19:40:59.264Z,9.51
2023-03-15T19:43:25.880Z,9.50
2023-03-15T19:45:52.526Z,9.48
2023-03-15T19:48:19.595Z,9.37
2023-03-15T19:50:46.173Z,9.18
2023-03-15T19:53:12.787Z,8.67
2023-03-15T19:55:39.349Z,8.70
2023-03-15T19:58:06.023Z,8.93
2023-03-15T20:00:32.626Z,8.74
2023-03-15T20:02:59.244Z,8.24
2023-03-15T20:05:25.843Z,8.16
2023-03-15T20:07:52.616Z,8.16
2023-03-15T20:10:19.451Z,7.97
2023-03-15T20:12:46.267Z,8.04
2023-03-15T20:15:12.852Z,8.15
2023-03-15T20:17:39.437Z,8.21
2023-03-15T20:20:06.535Z,8.12
2023-03-15T20:22:33.115Z,7.95
2023-03-15T20:24:59.667Z,8.01
2023-03-15T20:27:26.255Z,7.90
2023-03-15T20:29:52.827Z,7.93
2023-03-15T20:32:19.387Z,7.83
2023-03-15T20:34:45.975Z,7.88
2023-03-15T20:37:12.604Z,7.73
2023-03-15T20:39:39.247Z,7.75
2023-03-15T20:42:05.855Z,7.53
2023-03-15T20:44:32.439Z,7.61
2023-03-15T20:46:59.116Z,7.64
2023-03-15T20:49:27.584Z,7.87
2023-03-15T20:51:55.475Z,7.78
2023-03-15T20:54:22.044Z,7.43
2023-03-15T20:56:48.627Z,7.35
2023-03-15T20:59:15.222Z,7.20
2023-03-15T21:01:41.819Z,7.18
2023-03-15T21:04:08.406Z,7.29
2023-03-15T21:06:35.017Z,7.18
2023-03-15T21:09:01.602Z,7.16
2023-03-15T21:11:28.195Z,7.28
2023-03-15T21:13:54.825Z,7.22
2023-03-15T21:16:21.476Z,7.26
2023-03-15T21:18:48.115Z,7.01
2023-03-15T21:21:17.451Z,6.97
2023-03-15T21:23:44.038Z,7.06
2023-03-15T21:26:10.619Z,7.17
2023-03-15T21:28:37.204Z,7.12
2023-03-15T21:31:03.823Z,7.09
2023-03-15T21:33:30.427Z,7.14
2023-03-15T21:35:57.044Z,7.36
2023-03-15T21:38:23.661Z,7.14
2023-03-15T21:40:50.243Z,7.09
2023-03-15T21:43:16.843Z,7.17
2023-03-15T21:45:43.593Z,7.16
2023-03-15T21:48:10.364Z,7.36
2023-03-15T21:50:36.995Z,7.20
2023-03-15T21:53:03.644Z,6.81
2023-03-15T21:55:30.313Z,7.14
2023-03-15T21:57:56.939Z,6.96
2023-03-15T22:00:23.793Z,6.94
2023-03-15T22:02:50.488Z,6.94
2023-03-15T22:05:17.108Z,6.65
2023-03-15T22:07:43.742Z,6.56
2023-03-15T22:10:10.364Z,6.83
2023-03-15T22:12:37.082Z,6.72
2023-03-15T22:15:06.604Z,6.77
2023-03-15T22:17:33.236Z,6.82
2023-03-15T22:19:59.826Z,6.84
2023-03-15T22:22:26.420Z,6.66
2023-03-15T22:24:53.010Z,6.94
2023-03-15T22:27:19.583Z,6.83
2023-03-15T22:29:46.278Z,6.66
2023-03-15T22:32:12.865Z,6.70
2023-03-15T22:34:39.471Z,6.40
2023-03-15T22:37:06.089Z,6.63
2023-03-15T22:39:32.891Z,6.85
2023-03-15T22:41:59.582Z,6.98
2023-03-15T22:44:26.152Z,7.00
2023-03-15T22:46:52.885Z,6.87
2023-03-15T22:49:19.506Z,6.80
2023-03-15T22:51:46.077Z,6.80
2023-03-15T22:54:12.682Z,6.95
2023-03-15T22:56:40.970Z,6.72
2023-03-15T22:59:07.672Z,6.96
2023-03-15T23:01:34.313Z,6.98
2023-03-15T23:04:00.918Z,7.09
2023-03-15T23:06:27.500Z,7.17
2023-03-15T23:08:54.089Z,6.96
2023-03-15T23:11:20.653Z,6.92
2023-03-15T23:13:47.219Z,6.89
2023-03-15T23:16:13.887Z,6.51
2023-03-15T23:18:40.472Z,6.25
2023-03-15T23:21:07.083Z,6.15
2023-03-15T23:23:33.652Z,6.47
2023-03-15T23:26:00.236Z,6.68
2023-03-15T23:28:26.818Z,6.74
2023-03-15T23:30:53.447Z,6.69
2023-03-15T23:33:20.060Z,6.62
2023-03-15T23:35:46.637Z,6.75
2023-03-15T23:38:13.232Z,6.70
2023-03-15T23:40:39.838Z,6.80
2023-03-15T23:43:06.420Z,6.75
2023-03-15T23:45:33.010Z,6.76
2023-03-15T23:47:59.597Z,6.45
2023-03-15T23:50:27.076Z,6.65
2023-03-15T23:52:53.811Z,6.72
2023-03-15T23:55:20.371Z,6.70
2023-03-15T23:57:46.973Z,6.44
